Time;durP1;ratioP1;P1;durP2;ratioP2;P2;SDS_P1;SDS_P2;PMS_P1;PMS_P2;Temp;Humidity;BMP_temperature;BMP_pressure;BME280_temperature;BME280_humidity;BME280_pressure;Samples;Min_cycle;Max_cycle;Signal;HPM_P1;HPM_P2
2022/11/23 00:01:12;;;;;;;9.63;2.30;;;;;;;;;;5083772;28;20681;-79
2022/11/23 00:03:39;;;;;;;8.47;2.77;;;;;;;;;;5080331;28;20180;-79
2022/11/23 00:06:05;;;;;;;5.93;2.50;;;;;;;;;;5083447;28;20209;-78
2022/11/23 00:08:31;;;;;;;6.20;2.60;;;;;;;;;;5072189;28;20200;-79
2022/11/23 00:10:58;;;;;;;6.73;2.13;;;;;;;;;;5074384;28;20181;-79
2022/11/23 00:13:24;;;;;;;8.67;2.57;;;;;;;;;;5089520;28;20241;-78
2022/11/23 00:15:50;;;;;;;4.57;1.90;;;;;;;;;;5111402;28;20192;-78
2022/11/23 00:18:17;;;;;;;9.73;3.60;;;;;;;;;;5086424;28;20828;-78
2022/11/23 00:20:44;;;;;;;8.93;2.90;;;;;;;;;;5071416;28;20172;-78
2022/11/23 00:23:10;;;;;;;7.13;2.57;;;;;;;;;;5100021;28;20308;-79
2022/11/23 00:25:36;;;;;;;5.73;2.23;;;;;;;;;;5111400;28;20219;-78
2022/11/23 00:28:02;;;;;;;5.53;2.37;;;;;;;;;;5099528;28;20187;-78
2022/11/23 00:30:29;;;;;;;8.07;3.27;;;;;;;;;;5056105;28;20212;-79
2022/11/23 00:32:55;;;;;;;5.93;2.40;;;;;;;;;;5076500;28;20191;-78
2022/11/23 00:35:22;;;;;;;5.90;2.30;;;;;;;;;;5072346;28;20184;-78
2022/11/23 00:37:48;;;;;;;6.60;2.20;;;;;;;;;;5090300;28;20246;-78
2022/11/23 00:40:15;;;;;;;6.87;2.50;;;;;;;;;;5069046;28;20165;-79
2022/11/23 00:42:41;;;;;;;5.80;2.40;;;;;;;;;;5052507;28;20260;-78
2022/11/23 00:45:07;;;;;;;6.90;2.20;;;;;;;;;;5053589;28;20173;-78
2022/11/23 00:47:34;;;;;;;6.90;2.43;;;;;;;;;;5099754;28;20183;-79
2022/11/23 00:50:00;;;;;;;10.33;3.30;;;;;;;;;;5074573;28;20195;-79
2022/11/23 00:52:26;;;;;;;7.73;2.60;;;;;;;;;;5059132;28;20675;-78
2022/11/23 00:54:52;;;;;;;6.40;2.27;;;;;;;;;;5081901;28;22008;-79
2022/11/23 00:57:18;;;;;;;7.07;2.30;;;;;;;;;;5055271;28;20210;-78
2022/11/23 00:59:44;;;;;;;3.77;1.90;;;;;;;;;;5069126;28;20552;-78
2022/11/23 01:02:11;;;;;;;8.03;2.30;;;;;;;;;;5068618;28;20694;-79
2022/11/23 01:04:38;;;;;;;8.03;2.57;;;;;;;;;;5066920;28;20772;-79
2022/11/23 01:07:04;;;;;;;6.57;2.23;;;;;;;;;;5078480;28;20212;-80
2022/11/23 01:09:31;;;;;;;6.30;1.80;;;;;;;;;;5052075;28;20263;-78
2022/11/23 01:11:57;;;;;;;7.50;2.10;;;;;;;;;;5066513;28;20185;-78
2022/11/23 01:14:24;;;;;;;4.80;2.03;;;;;;;;;;5067190;28;20185;-78
2022/11/23 01:16:50;;;;;;;4.27;2.17;;;;;;;;;;5082927;28;20242;-80
2022/11/23 01:19:17;;;;;;;5.67;2.00;;;;;;;;;;5065196;28;20660;-78
2022/11/23 01:21:46;;;;;;;4.77;2.00;;;;;;;;;;5069069;28;20231;-79
2022/11/23 01:24:14;;;;;;;5.20;2.07;;;;;;;;;;5070290;28;20172;-80
2022/11/23 01:26:41;;;;;;;5.10;1.87;;;;;;;;;;5080292;28;20212;-78
2022/11/23 01:29:07;;;;;;;7.93;2.00;;;;;;;;;;5060466;28;20173;-80
2022/11/23 01:31:33;;;;;;;7.30;2.07;;;;;;;;;;5078019;28;20205;-78
2022/11/23 01:34:00;;;;;;;6.87;2.07;;;;;;;;;;5071034;28;20216;-79
2022/11/23 01:36:31;;;;;;;6.27;2.07;;;;;;;;;;5081703;28;20189;-78
2022/11/23 01:38:59;;;;;;;6.70;2.03;;;;;;;;;;5079726;28;20342;-78
2022/11/23 01:41:30;;;;;;;3.70;1.80;;;;;;;;;;5064464;28;20157;-78
2022/11/23 01:43:57;;;;;;;4.80;2.10;;;;;;;;;;5067583;28;20637;-79
2022/11/23 01:46:24;;;;;;;4.43;2.07;;;;;;;;;;5076845;28;20299;-79
2022/11/23 01:49:01;;;;;;;4.80;1.87;;;;;;;;;;5073282;28;20538;-78
2022/11/23 01:51:33;;;;;;;4.07;2.00;;;;;;;;;;5061420;28;20267;-78
2022/11/23 01:54:01;;;;;;;4.77;2.00;;;;;;;;;;5048587;28;20234;-78
2022/11/23 01:56:29;;;;;;;5.83;1.90;;;;;;;;;;5080683;28;20214;-78
2022/11/23 01:58:57;;;;;;;5.13;1.73;;;;;;;;;;5070962;28;20216;-78
2022/11/23 02:01:23;;;;;;;4.27;1.73;;;;;;;;;;5061036;28;20178;-80
2022/11/23 02:03:50;;;;;;;5.57;1.90;;;;;;;;;;5087917;28;20299;-78
2022/11/23 02:06:18;;;;;;;4.83;1.97;;;;;;;;;;5077744;28;20186;-79
2022/11/23 02:08:44;;;;;;;6.17;2.00;;;;;;;;;;5072713;28;20207;-79
2022/11/23 02:11:14;;;;;;;6.27;2.63;;;;;;;;;;5082872;28;20176;-79
2022/11/23 02:13:42;;;;;;;5.40;1.97;;;;;;;;;;5073134;28;20184;-80
2022/11/23 02:16:08;;;;;;;4.53;2.07;;;;;;;;;;5064716;28;20216;-78
2022/11/23 02:18:35;;;;;;;6.13;2.10;;;;;;;;;;5078018;28;20245;-78
2022/11/23 02:21:04;;;;;;;4.00;1.80;;;;;;;;;;5067861;28;20185;-80
2022/11/23 02:23:35;;;;;;;6.50;1.90;;;;;;;;;;5070676;28;20261;-78
2022/11/23 02:26:14;;;;;;;5.80;1.73;;;;;;;;;;5076433;28;20238;-78
2022/11/23 02:28:45;;;;;;;7.47;2.37;;;;;;;;;;5073030;28;20696;-79
2022/11/23 02:31:11;;;;;;;4.03;1.83;;;;;;;;;;5052316;28;20258;-79
2022/11/23 02:33:40;;;;;;;3.87;1.63;;;;;;;;;;5063341;28;20199;-79
2022/11/23 02:36:22;;;;;;;8.73;2.30;;;;;;;;;;5084929;28;20315;-78
2022/11/23 02:38:48;;;;;;;5.83;2.27;;;;;;;;;;5081262;28;20793;-79
2022/11/23 02:41:14;;;;;;;4.13;1.90;;;;;;;;;;5080077;28;20177;-79
2022/11/23 02:43:40;;;;;;;5.77;1.80;;;;;;;;;;5083771;28;20184;-80
2022/11/23 02:46:06;;;;;;;5.63;1.80;;;;;;;;;;5089548;28;20254;-78
2022/11/23 02:48:34;;;;;;;5.97;2.10;;;;;;;;;;5080571;28;20216;-78
2022/11/23 02:51:02;;;;;;;4.30;1.90;;;;;;;;;;5064477;28;20192;-78
2022/11/23 02:53:30;;;;;;;5.47;2.00;;;;;;;;;;5052809;28;20260;-79
2022/11/23 02:55:57;;;;;;;3.93;1.90;;;;;;;;;;5054914;28;20208;-79
2022/11/23 02:58:24;;;;;;;6.43;1.90;;;;;;;;;;5084983;28;20278;-78
2022/11/23 03:00:50;;;;;;;3.37;1.73;;;;;;;;;;5078722;28;20173;-79
2022/11/23 03:03:19;;;;;;;5.30;1.77;;;;;;;;;;5073546;28;20180;-79
2022/11/23 03:05:45;;;;;;;3.90;1.80;;;;;;;;;;5074167;28;20203;-78
2022/11/23 03:08:11;;;;;;;5.60;1.97;;;;;;;;;;5083414;28;20314;-79
2022/11/23 03:10:39;;;;;;;5.03;1.77;;;;;;;;;;5058428;28;20191;-79
2022/11/23 03:13:05;;;;;;;3.77;1.80;;;;;;;;;;5053518;28;20180;-78
2022/11/23 03:15:34;;;;;;;8.33;2.03;;;;;;;;;;5096185;28;20200;-78
2022/11/23 03:18:03;;;;;;;4.07;1.73;;;;;;;;;;5077393;28;20188;-79
2022/11/23 03:20:30;;;;;;;5.33;1.93;;;;;;;;;;5083816;28;20184;-79
2022/11/23 03:22:57;;;;;;;4.67;1.87;;;;;;;;;;5070501;28;20530;-79
2022/11/23 03:25:24;;;;;;;4.03;1.90;;;;;;;;;;5071536;28;20184;-78
2022/11/23 03:27:53;;;;;;;6.10;1.77;;;;;;;;;;5054485;28;20284;-80
2022/11/23 03:30:20;;;;;;;4.57;1.70;;;;;;;;;;5064450;28;20183;-78
2022/11/23 03:32:47;;;;;;;2.60;1.80;;;;;;;;;;5079490;28;20211;-79
2022/11/23 03:35:13;;;;;;;4.83;1.57;;;;;;;;;;5073243;28;20188;-79
2022/11/23 03:37:59;;;;;;;7.50;2.10;;;;;;;;;;5072197;28;20201;-80
2022/11/23 03:40:25;;;;;;;5.27;1.90;;;;;;;;;;5061236;28;20240;-80
2022/11/23 03:43:12;;;;;;;6.83;1.80;;;;;;;;;;5046980;28;20171;-78
2022/11/23 03:45:39;;;;;;;3.90;1.90;;;;;;;;;;5077359;28;20206;-80
2022/11/23 03:48:05;;;;;;;4.67;1.77;;;;;;;;;;5070504;28;20264;-78
2022/11/23 03:50:32;;;;;;;4.10;1.73;;;;;;;;;;5070721;28;20180;-79
2022/11/23 03:52:58;;;;;;;4.93;1.90;;;;;;;;;;5067075;28;20215;-79
2022/11/23 03:55:25;;;;;;;5.13;1.80;;;;;;;;;;5070151;28;20676;-79
2022/11/23 03:57:58;;;;;;;5.23;1.83;;;;;;;;;;5077346;28;20236;-78
2022/11/23 04:00:27;;;;;;;5.70;1.93;;;;;;;;;;5058599;28;20270;-79
2022/11/23 04:02:54;;;;;;;3.67;1.50;;;;;;;;;;5069976;28;20789;-78
2022/11/23 04:05:43;;;;;;;3.50;1.60;;;;;;;;;;5036905;28;20431;-78
2022/11/23 04:08:29;;;;;;;4.20;1.77;;;;;;;;;;5066973;28;20215;-78
2022/11/23 04:10:58;;;;;;;5.90;1.90;;;;;;;;;;5064882;28;20192;-79
2022/11/23 04:13:35;;;;;;;3.80;1.70;;;;;;;;;;5053866;28;20528;-79
2022/11/23 04:16:01;;;;;;;5.73;2.10;;;;;;;;;;5061793;28;20265;-78
2022/11/23 04:18:27;;;;;;;7.07;1.83;;;;;;;;;;5075814;28;20207;-78
2022/11/23 04:20:54;;;;;;;4.20;1.80;;;;;;;;;;5053210;28;20178;-78
2022/11/23 04:23:20;;;;;;;5.43;1.80;;;;;;;;;;5073440;28;20186;-78
2022/11/23 04:25:48;;;;;;;4.33;1.70;;;;;;;;;;5048531;28;20208;-78
2022/11/23 04:28:14;;;;;;;16.33;10.77;;;;;;;;;;5044527;28;20192;-78
2022/11/23 04:30:42;;;;;;;8.23;3.63;;;;;;;;;;5063043;28;20260;-79
2022/11/23 04:33:09;;;;;;;6.10;2.23;;;;;;;;;;5066286;28;20181;-78
2022/11/23 04:35:37;;;;;;;5.50;1.90;;;;;;;;;;5050624;28;20193;-78
2022/11/23 04:38:03;;;;;;;5.37;1.73;;;;;;;;;;5077837;28;20247;-79
2022/11/23 04:40:30;;;;;;;3.97;1.90;;;;;;;;;;5078422;28;20173;-78
2022/11/23 04:43:00;;;;;;;5.00;2.00;;;;;;;;;;5079442;28;20192;-80
2022/11/23 04:45:26;;;;;;;5.07;1.83;;;;;;;;;;5081630;28;20259;-79
2022/11/23 04:47:54;;;;;;;4.97;1.80;;;;;;;;;;5055692;28;20180;-79
2022/11/23 04:50:23;;;;;;;4.07;1.53;;;;;;;;;;5058520;28;20225;-81
2022/11/23 04:52:53;;;;;;;4.70;1.83;;;;;;;;;;5054775;28;20200;-79
2022/11/23 04:55:25;;;;;;;3.17;1.67;;;;;;;;;;5062716;28;20229;-81
2022/11/23 04:57:56;;;;;;;4.57;1.83;;;;;;;;;;5065189;28;20786;-79
2022/11/23 05:00:26;;;;;;;5.17;2.00;;;;;;;;;;5050967;28;20200;-78
2022/11/23 05:02:54;;;;;;;4.53;1.73;;;;;;;;;;5052013;28;20183;-79
2022/11/23 05:05:25;;;;;;;6.70;1.73;;;;;;;;;;5056345;28;20218;-79
2022/11/23 05:07:51;;;;;;;5.67;2.00;;;;;;;;;;5063045;28;20820;-78
2022/11/23 05:10:19;;;;;;;3.78;1.90;;;;;;;;;;5071001;28;20433;-78
2022/11/23 05:12:46;;;;;;;3.90;1.47;;;;;;;;;;5079546;28;20181;-79
2022/11/23 05:15:13;;;;;;;3.83;1.60;;;;;;;;;;5062525;28;20840;-79
2022/11/23 05:17:40;;;;;;;7.17;1.80;;;;;;;;;;5069550;28;20204;-78
2022/11/23 05:20:14;;;;;;;6.30;1.70;;;;;;;;;;5056000;28;20180;-78
2022/11/23 05:22:46;;;;;;;5.30;1.60;;;;;;;;;;5051905;28;20237;-78
2022/11/23 05:25:15;;;;;;;5.27;1.60;;;;;;;;;;5076983;28;20192;-78
2022/11/23 05:27:44;;;;;;;5.67;1.80;;;;;;;;;;5064657;28;20259;-78
2022/11/23 05:30:11;;;;;;;3.93;1.70;;;;;;;;;;5051906;28;20238;-78
2022/11/23 05:32:37;;;;;;;4.80;1.80;;;;;;;;;;5073823;28;20188;-79
2022/11/23 05:35:05;;;;;;;5.77;1.60;;;;;;;;;;5077853;28;20173;-78
2022/11/23 05:37:33;;;;;;;3.27;1.70;;;;;;;;;;5053036;28;20208;-78
2022/11/23 05:40:01;;;;;;;3.90;1.43;;;;;;;;;;5080435;28;20757;-79
2022/11/23 05:42:35;;;;;;;3.60;1.47;;;;;;;;;;5074751;28;20930;-79
2022/11/23 05:45:09;;;;;;;3.87;1.70;;;;;;;;;;5071561;28;20179;-79
2022/11/23 05:47:40;;;;;;;5.63;1.50;;;;;;;;;;5072713;28;20185;-79
2022/11/23 05:50:22;;;;;;;4.22;1.80;;;;;;;;;;5059895;28;20430;-78
2022/11/23 05:52:59;;;;;;;4.90;1.67;;;;;;;;;;5066448;28;20188;-79
2022/11/23 05:55:26;;;;;;;3.90;1.57;;;;;;;;;;5061596;28;20264;-80
2022/11/23 05:57:52;;;;;;;4.63;1.70;;;;;;;;;;5068250;28;20208;-78
2022/11/23 06:00:19;;;;;;;4.03;1.67;;;;;;;;;;5082910;28;20208;-78
2022/11/23 06:02:59;;;;;;;7.03;1.77;;;;;;;;;;5061787;28;20701;-78
2022/11/23 06:05:25;;;;;;;2.57;1.37;;;;;;;;;;5072352;28;20259;-79
2022/11/23 06:07:52;;;;;;;3.73;1.80;;;;;;;;;;5090559;28;20849;-78
2022/11/23 06:10:23;;;;;;;3.77;1.53;;;;;;;;;;5071858;28;20187;-81
2022/11/23 06:12:51;;;;;;;5.30;2.00;;;;;;;;;;5074865;28;20181;-79
2022/11/23 06:15:18;;;;;;;4.38;1.80;;;;;;;;;;5050024;28;20480;-78
2022/11/23 06:17:45;;;;;;;5.20;1.80;;;;;;;;;;5048478;28;20214;-78
2022/11/23 06:20:15;;;;;;;4.70;1.77;;;;;;;;;;5067604;28;20247;-79
2022/11/23 06:22:52;;;;;;;10.57;1.70;;;;;;;;;;5059719;28;20238;-79
2022/11/23 06:25:19;;;;;;;3.57;1.43;;;;;;;;;;5032384;28;20200;-78
2022/11/23 06:27:54;;;;;;;3.93;1.60;;;;;;;;;;5067747;28;20199;-78
2022/11/23 06:30:25;;;;;;;2.93;1.60;;;;;;;;;;5067254;28;20237;-79
2022/11/23 06:32:51;;;;;;;5.40;1.53;;;;;;;;;;5069588;28;20568;-78
2022/11/23 06:35:19;;;;;;;3.43;1.50;;;;;;;;;;5063474;28;20211;-79
2022/11/23 06:37:47;;;;;;;2.50;1.40;;;;;;;;;;5075789;28;20193;-79
2022/11/23 06:40:14;;;;;;;3.83;1.43;;;;;;;;;;5087959;28;20599;-78
2022/11/23 06:42:41;;;;;;;4.83;1.63;;;;;;;;;;5078067;28;20263;-78
2022/11/23 06:45:17;;;;;;;7.07;1.80;;;;;;;;;;5068952;28;20259;-79
2022/11/23 06:47:44;;;;;;;6.13;1.60;;;;;;;;;;5063751;28;20181;-84
2022/11/23 06:50:10;;;;;;;4.77;1.63;;;;;;;;;;5056355;28;20316;-82
2022/11/23 06:52:37;;;;;;;2.73;1.50;;;;;;;;;;5061585;28;20192;-81
2022/11/23 06:55:03;;;;;;;3.97;1.30;;;;;;;;;;5061162;28;20953;-80
2022/11/23 06:57:29;;;;;;;5.77;1.70;;;;;;;;;;5065802;28;20223;-83
2022/11/23 06:59:56;;;;;;;6.47;1.93;;;;;;;;;;5089667;28;20169;-78
2022/11/23 07:02:30;;;;;;;7.37;1.70;;;;;;;;;;5049758;28;20196;-82
2022/11/23 07:04:57;;;;;;;5.57;1.80;;;;;;;;;;5056214;28;20184;-86
2022/11/23 07:07:24;;;;;;;3.53;1.67;;;;;;;;;;5028961;28;20300;-85
2022/11/23 07:09:59;;;;;;;3.83;1.63;;;;;;;;;;5065333;28;20267;-78
2022/11/23 07:12:32;;;;;;;3.60;1.60;;;;;;;;;;5086358;28;20182;-78
2022/11/23 07:15:00;;;;;;;4.70;1.70;;;;;;;;;;5093323;28;20279;-78
2022/11/23 07:17:28;;;;;;;3.53;1.43;;;;;;;;;;5070252;28;20683;-78
2022/11/23 07:19:54;;;;;;;3.53;1.80;;;;;;;;;;5054336;28;20660;-76
2022/11/23 07:22:20;;;;;;;5.23;1.90;;;;;;;;;;5059634;28;20264;-79
2022/11/23 07:24:46;;;;;;;5.50;1.73;;;;;;;;;;5083046;28;20187;-79
2022/11/23 07:27:13;;;;;;;3.77;1.80;;;;;;;;;;5068016;28;20943;-79
2022/11/23 07:29:39;;;;;;;4.70;1.87;;;;;;;;;;5069007;28;20192;-79
2022/11/23 07:32:07;;;;;;;4.33;1.70;;;;;;;;;;5080220;28;20709;-79
2022/11/23 07:34:33;;;;;;;3.77;2.00;;;;;;;;;;5037886;28;20555;-78
2022/11/23 07:37:00;;;;;;;5.13;1.90;;;;;;;;;;5079639;28;20213;-78
2022/11/23 07:39:26;;;;;;;4.43;1.57;;;;;;;;;;5064622;28;20187;-78
2022/11/23 07:41:53;;;;;;;4.30;1.70;;;;;;;;;;5069871;28;20187;-79
2022/11/23 07:44:27;;;;;;;6.23;1.80;;;;;;;;;;5089875;28;20232;-79
2022/11/23 07:46:54;;;;;;;5.93;1.87;;;;;;;;;;5085484;28;20288;-79
2022/11/23 07:49:20;;;;;;;3.67;1.50;;;;;;;;;;5087532;28;20176;-79
2022/11/23 07:51:46;;;;;;;3.70;1.43;;;;;;;;;;5090021;28;20172;-78
2022/11/23 07:54:12;;;;;;;3.73;1.63;;;;;;;;;;5092491;28;20258;-79
2022/11/23 07:56:39;;;;;;;4.40;1.67;;;;;;;;;;5089002;28;20196;-84
2022/11/23 07:59:05;;;;;;;4.50;1.33;;;;;;;;;;5074164;28;20213;-79
2022/11/23 08:01:31;;;;;;;5.80;1.60;;;;;;;;;;5073413;28;20222;-76
2022/11/23 08:03:57;;;;;;;5.20;1.87;;;;;;;;;;5071456;28;20205;-77
2022/11/23 08:06:23;;;;;;;6.80;1.60;;;;;;;;;;5084361;28;20192;-77
2022/11/23 08:08:49;;;;;;;4.87;1.60;;;;;;;;;;5085756;28;20184;-77
2022/11/23 08:11:17;;;;;;;3.33;1.27;;;;;;;;;;5090373;28;20818;-77
2022/11/23 08:13:44;;;;;;;2.97;1.43;;;;;;;;;;5087933;28;20191;-76
2022/11/23 08:16:10;;;;;;;3.77;1.57;;;;;;;;;;5075577;28;20203;-76
2022/11/23 08:18:36;;;;;;;5.53;2.20;;;;;;;;;;5069221;28;20234;-77
2022/11/23 08:21:02;;;;;;;4.93;1.77;;;;;;;;;;5085555;28;20191;-76
2022/11/23 08:23:29;;;;;;;5.67;1.97;;;;;;;;;;5089645;28;20953;-76
2022/11/23 08:25:55;;;;;;;4.23;1.70;;;;;;;;;;5087995;28;20854;-77
2022/11/23 08:28:21;;;;;;;5.93;2.00;;;;;;;;;;5088927;28;20181;-76
2022/11/23 08:30:47;;;;;;;3.17;1.67;;;;;;;;;;5084827;28;20196;-76
2022/11/23 08:33:14;;;;;;;4.47;1.80;;;;;;;;;;5087783;28;20186;-76
2022/11/23 08:35:40;;;;;;;2.90;1.70;;;;;;;;;;5088598;28;20208;-76
2022/11/23 08:38:07;;;;;;;3.77;1.77;;;;;;;;;;5088304;28;20912;-77
2022/11/23 08:40:34;;;;;;;6.70;1.80;;;;;;;;;;5083214;28;20196;-76
2022/11/23 08:43:00;;;;;;;3.73;1.60;;;;;;;;;;5067529;28;20188;-76
2022/11/23 08:45:27;;;;;;;4.57;1.50;;;;;;;;;;5089636;28;20181;-76
2022/11/23 08:47:54;;;;;;;6.77;1.70;;;;;;;;;;5086849;28;20256;-76
2022/11/23 08:50:21;;;;;;;5.37;2.03;;;;;;;;;;5087267;28;20172;-76
2022/11/23 08:52:47;;;;;;;5.33;1.80;;;;;;;;;;5087473;28;20391;-76
2022/11/23 08:55:13;;;;;;;2.97;1.30;;;;;;;;;;5068876;28;20200;-77
2022/11/23 08:57:39;;;;;;;4.53;1.73;;;;;;;;;;5084353;28;20207;-77
2022/11/23 09:00:06;;;;;;;4.60;1.60;;;;;;;;;;5087882;28;20176;-76
2022/11/23 09:02:32;;;;;;;6.97;2.10;;;;;;;;;;5083538;28;20189;-76
2022/11/23 09:04:59;;;;;;;9.03;2.00;;;;;;;;;;5087512;28;20164;-76
2022/11/23 09:07:25;;;;;;;5.53;1.80;;;;;;;;;;5084556;28;20302;-76
2022/11/23 09:09:52;;;;;;;3.53;1.80;;;;;;;;;;5087435;28;20185;-76
2022/11/23 09:12:18;;;;;;;4.20;1.50;;;;;;;;;;5086064;28;20184;-76
2022/11/23 09:14:44;;;;;;;5.20;1.60;;;;;;;;;;5082988;28;20299;-76
2022/11/23 09:17:10;;;;;;;4.63;1.50;;;;;;;;;;5084053;28;20236;-76
2022/11/23 09:19:36;;;;;;;6.53;1.90;;;;;;;;;;5069191;28;20169;-76
2022/11/23 09:22:02;;;;;;;3.27;1.40;;;;;;;;;;5079835;28;20181;-76
2022/11/23 09:24:28;;;;;;;6.03;1.63;;;;;;;;;;5079277;28;20226;-76
2022/11/23 09:26:55;;;;;;;6.33;1.70;;;;;;;;;;5048789;28;20208;-76
2022/11/23 09:29:21;;;;;;;5.47;1.87;;;;;;;;;;5088031;28;20214;-76
2022/11/23 09:31:47;;;;;;;7.30;2.70;;;;;;;;;;5066832;28;20195;-77
2022/11/23 09:34:13;;;;;;;5.40;1.70;;;;;;;;;;5086314;28;20271;-77
2022/11/23 09:36:40;;;;;;;4.37;1.50;;;;;;;;;;5062893;28;20693;-77
2022/11/23 09:39:07;;;;;;;4.57;1.97;;;;;;;;;;5080551;28;21484;-77
2022/11/23 09:41:33;;;;;;;5.57;1.60;;;;;;;;;;5083231;28;20564;-77
2022/11/23 09:44:02;;;;;;;6.23;1.80;;;;;;;;;;5084395;28;20181;-76
2022/11/23 09:46:52;;;;;;;3.07;1.50;;;;;;;;;;5075149;28;20238;-77
2022/11/23 09:49:20;;;;;;;4.60;1.50;;;;;;;;;;5069349;28;20235;-76
2022/11/23 09:51:47;;;;;;;4.63;1.67;;;;;;;;;;5065389;28;20176;-77
2022/11/23 09:54:31;;;;;;;5.53;1.90;;;;;;;;;;5081635;28;20185;-77
2022/11/23 09:56:58;;;;;;;3.73;1.63;;;;;;;;;;5059819;28;20200;-77
2022/11/23 09:59:33;;;;;;;5.03;1.80;;;;;;;;;;5057873;28;20235;-77
2022/11/23 10:02:00;;;;;;;4.10;1.50;;;;;;;;;;5077458;28;20215;-77
2022/11/23 10:04:29;;;;;;;8.47;2.00;;;;;;;;;;5075005;28;20180;-77
2022/11/23 10:06:58;;;;;;;3.87;1.77;;;;;;;;;;5072654;28;20201;-76
2022/11/23 10:09:41;;;;;;;5.27;1.67;;;;;;;;;;5076705;28;20342;-76
2022/11/23 10:12:33;;;;;;;4.77;1.60;;;;;;;;;;5080722;28;20556;-76
2022/11/23 10:15:21;;;;;;;6.13;1.70;;;;;;;;;;5073459;28;20619;-76
2022/11/23 10:17:49;;;;;;;6.20;1.73;;;;;;;;;;5065694;28;20643;-76
2022/11/23 10:20:18;;;;;;;7.77;1.80;;;;;;;;;;5089320;28;20180;-76
2022/11/23 10:22:56;;;;;;;9.30;1.80;;;;;;;;;;5084644;28;20174;-76
2022/11/23 10:25:23;;;;;;;7.57;2.10;;;;;;;;;;5082922;28;20185;-76
2022/11/23 10:27:51;;;;;;;3.20;1.60;;;;;;;;;;5076752;28;20263;-76
2022/11/23 10:30:18;;;;;;;4.90;1.37;;;;;;;;;;5082983;28;20583;-76
2022/11/23 10:32:54;;;;;;;3.77;1.50;;;;;;;;;;5085973;28;20184;-76
2022/11/23 10:35:20;;;;;;;4.40;1.80;;;;;;;;;;5088086;28;20183;-75
2022/11/23 10:37:47;;;;;;;4.30;1.60;;;;;;;;;;5096139;28;20200;-75
2022/11/23 10:40:24;;;;;;;3.43;1.50;;;;;;;;;;5073029;28;20168;-75
2022/11/23 10:42:54;;;;;;;3.43;1.47;;;;;;;;;;5085786;28;20214;-77
2022/11/23 10:45:22;;;;;;;2.40;1.33;;;;;;;;;;5074641;28;20898;-75
2022/11/23 10:47:50;;;;;;;6.70;3.10;;;;;;;;;;5085477;28;20769;-75
2022/11/23 10:50:21;;;;;;;5.20;2.00;;;;;;;;;;5091013;28;20170;-75
2022/11/23 10:52:55;;;;;;;5.13;1.70;;;;;;;;;;5071950;28;20248;-75
2022/11/23 10:55:27;;;;;;;3.53;1.70;;;;;;;;;;5081641;28;20180;-75
2022/11/23 10:57:53;;;;;;;4.73;1.60;;;;;;;;;;5084642;28;20235;-77
2022/11/23 11:00:21;;;;;;;7.17;1.67;;;;;;;;;;5068709;28;20207;-73
2022/11/23 11:02:48;;;;;;;4.63;1.70;;;;;;;;;;5088574;28;20179;-77
2022/11/23 11:05:24;;;;;;;5.10;1.60;;;;;;;;;;5082125;28;20172;-77
2022/11/23 11:07:50;;;;;;;7.17;1.70;;;;;;;;;;5082833;28;20199;-77
2022/11/23 11:10:32;;;;;;;7.37;2.00;;;;;;;;;;5092061;28;20175;-77
2022/11/23 11:12:58;;;;;;;7.17;1.70;;;;;;;;;;5086560;28;20177;-76
2022/11/23 11:15:24;;;;;;;4.40;1.70;;;;;;;;;;5085634;28;20225;-76
2022/11/23 11:17:55;;;;;;;4.40;1.80;;;;;;;;;;5095648;28;20979;-76
2022/11/23 11:20:24;;;;;;;4.20;1.70;;;;;;;;;;5092776;28;20690;-77
2022/11/23 11:22:50;;;;;;;4.03;1.77;;;;;;;;;;5089371;28;20259;-76
2022/11/23 11:25:35;;;;;;;4.40;1.93;;;;;;;;;;5090892;28;20179;-77
2022/11/23 11:28:03;;;;;;;9.23;2.07;;;;;;;;;;5096570;28;20175;-76
2022/11/23 11:30:44;;;;;;;4.77;1.90;;;;;;;;;;5081067;28;20184;-77
2022/11/23 11:33:16;;;;;;;5.50;1.60;;;;;;;;;;5084298;28;20897;-76
2022/11/23 11:35:45;;;;;;;4.40;1.60;;;;;;;;;;5086922;28;20208;-77
2022/11/23 11:38:17;;;;;;;5.20;1.73;;;;;;;;;;5107450;28;20669;-77
2022/11/23 11:40:48;;;;;;;4.60;1.90;;;;;;;;;;5077938;28;20180;-76
2022/11/23 11:43:22;;;;;;;4.77;1.50;;;;;;;;;;5077553;28;20223;-77
2022/11/23 11:45:51;;;;;;;5.97;1.70;;;;;;;;;;5083011;28;20196;-76
2022/11/23 11:48:34;;;;;;;8.40;1.97;;;;;;;;;;5079117;28;20191;-76
2022/11/23 11:51:04;;;;;;;6.07;1.83;;;;;;;;;;5084470;28;20211;-77
2022/11/23 11:53:36;;;;;;;4.53;2.80;;;;;;;;;;5083686;28;20192;-77
2022/11/23 11:56:12;;;;;;;9.33;2.20;;;;;;;;;;5063815;28;20232;-77
2022/11/23 11:58:44;;;;;;;6.30;2.17;;;;;;;;;;5080711;28;20303;-77
2022/11/23 12:01:34;;;;;;;5.20;1.80;;;;;;;;;;5090912;28;20183;-77
2022/11/23 12:04:05;;;;;;;9.13;1.90;;;;;;;;;;5064840;28;20266;-77
2022/11/23 12:06:47;;;;;;;6.07;1.80;;;;;;;;;;5084449;28;20192;-77
2022/11/23 12:09:34;;;;;;;5.50;1.97;;;;;;;;;;5084345;28;20604;-77
2022/11/23 12:12:14;;;;;;;6.67;1.77;;;;;;;;;;5066638;28;20203;-77
2022/11/23 12:14:40;;;;;;;7.20;2.03;;;;;;;;;;5072428;28;20185;-76
2022/11/23 12:17:15;;;;;;;5.67;1.63;;;;;;;;;;5076680;28;20293;-76
2022/11/23 12:19:44;;;;;;;5.07;1.80;;;;;;;;;;5085453;28;20191;-76
2022/11/23 12:22:19;;;;;;;4.00;1.57;;;;;;;;;;5062600;28;20185;-76
2022/11/23 12:25:10;;;;;;;3.83;1.50;;;;;;;;;;5090765;28;20183;-76
2022/11/23 12:27:48;;;;;;;4.37;1.67;;;;;;;;;;5071511;28;20212;-79
2022/11/23 12:30:17;;;;;;;4.10;1.57;;;;;;;;;;5093865;28;20249;-72
2022/11/23 12:33:02;;;;;;;9.83;1.83;;;;;;;;;;5078962;28;20194;-72
2022/11/23 12:35:28;;;;;;;6.23;1.80;;;;;;;;;;5084463;28;20180;-72
2022/11/23 12:38:01;;;;;;;5.17;1.70;;;;;;;;;;5082842;28;20220;-76
2022/11/23 12:40:27;;;;;;;5.73;1.70;;;;;;;;;;5063772;28;20181;-78
2022/11/23 12:43:00;;;;;;;6.13;1.50;;;;;;;;;;5084626;28;20848;-77
2022/11/23 12:45:33;;;;;;;4.17;1.40;;;;;;;;;;5053209;28;20177;-78
2022/11/23 12:48:10;;;;;;;5.53;1.80;;;;;;;;;;5071489;28;20307;-78
2022/11/23 12:50:44;;;;;;;5.23;1.70;;;;;;;;;;5071579;28;20224;-78
2022/11/23 12:53:22;;;;;;;4.80;1.50;;;;;;;;;;5089005;28;20621;-78
2022/11/23 12:55:54;;;;;;;4.43;1.50;;;;;;;;;;5068749;28;20747;-78
2022/11/23 12:58:31;;;;;;;3.73;1.57;;;;;;;;;;5081575;28;20933;-78
2022/11/23 13:01:14;;;;;;;3.37;1.43;;;;;;;;;;5082039;28;20173;-78
2022/11/23 13:04:00;;;;;;;2.97;1.50;;;;;;;;;;5083234;28;20183;-78
2022/11/23 13:06:29;;;;;;;3.50;1.57;;;;;;;;;;5084442;28;20211;-79
2022/11/23 13:09:15;;;;;;;7.60;2.93;;;;;;;;;;5052334;28;20181;-78
2022/11/23 13:11:41;;;;;;;4.37;1.90;;;;;;;;;;5092170;28;20187;-78
2022/11/23 13:14:16;;;;;;;4.33;2.10;;;;;;;;;;5086281;28;20177;-78
2022/11/23 13:16:53;;;;;;;8.30;2.53;;;;;;;;;;5074334;28;20215;-78
2022/11/23 13:19:39;;;;;;;4.80;2.00;;;;;;;;;;5083335;28;20200;-79
2022/11/23 13:22:10;;;;;;;5.47;1.97;;;;;;;;;;5063436;28;20207;-83
2022/11/23 13:24:38;;;;;;;3.87;1.80;;;;;;;;;;5081616;28;20189;-83
2022/11/23 13:27:13;;;;;;;4.83;1.50;;;;;;;;;;5053593;28;20205;-84
2022/11/23 13:29:49;;;;;;;3.50;1.60;;;;;;;;;;5043181;28;20184;-78
2022/11/23 13:32:34;;;;;;;4.33;1.60;;;;;;;;;;5079949;28;20168;-77
2022/11/23 13:35:00;;;;;;;4.60;1.80;;;;;;;;;;5087872;28;20703;-75
2022/11/23 13:37:26;;;;;;;3.83;1.67;;;;;;;;;;5087042;28;20277;-79
2022/11/23 13:39:52;;;;;;;4.70;1.70;;;;;;;;;;5091808;28;20204;-78
2022/11/23 13:42:19;;;;;;;4.97;1.93;;;;;;;;;;5069566;28;20269;-79
2022/11/23 13:44:45;;;;;;;4.57;2.40;;;;;;;;;;5068946;28;20169;-78
2022/11/23 13:47:15;;;;;;;6.67;1.90;;;;;;;;;;5095068;28;20223;-77
2022/11/23 13:49:45;;;;;;;5.00;2.07;;;;;;;;;;5085540;28;20199;-77
2022/11/23 13:52:17;;;;;;;4.83;1.90;;;;;;;;;;5095876;28;20171;-79
2022/11/23 13:54:53;;;;;;;5.00;2.20;;;;;;;;;;5089558;28;20176;-78
2022/11/23 13:57:19;;;;;;;6.20;2.20;;;;;;;;;;5064559;28;20265;-77
2022/11/23 13:59:45;;;;;;;2.83;1.60;;;;;;;;;;5088866;28;20661;-77
2022/11/23 14:02:12;;;;;;;2.77;1.20;;;;;;;;;;5070621;28;20176;-77
2022/11/23 14:04:38;;;;;;;4.40;1.60;;;;;;;;;;5093626;28;20683;-77
2022/11/23 14:07:33;;;;;;;6.93;1.80;;;;;;;;;;5068582;28;20212;-77
2022/11/23 14:10:05;;;;;;;3.77;1.60;;;;;;;;;;5032265;28;20184;-77
2022/11/23 14:12:32;;;;;;;2.60;1.50;;;;;;;;;;5082623;28;20259;-77
2022/11/23 14:15:03;;;;;;;4.10;1.30;;;;;;;;;;5085476;28;20165;-77
2022/11/23 14:17:48;;;;;;;5.07;1.33;;;;;;;;;;5065574;28;20212;-77
2022/11/23 14:20:17;;;;;;;3.07;1.10;;;;;;;;;;5088577;28;20241;-77
2022/11/23 14:22:43;;;;;;;3.10;1.30;;;;;;;;;;5072922;28;20203;-77
2022/11/23 14:25:28;;;;;;;4.10;1.40;;;;;;;;;;5093049;28;20275;-77
2022/11/23 14:28:06;;;;;;;3.57;1.53;;;;;;;;;;5094896;28;20195;-78
2022/11/23 14:30:53;;;;;;;3.40;1.40;;;;;;;;;;5070808;28;20261;-78
2022/11/23 14:33:27;;;;;;;3.87;1.37;;;;;;;;;;5086101;28;20172;-78
2022/11/23 14:36:17;;;;;;;3.57;1.30;;;;;;;;;;5099663;28;20203;-78
2022/11/23 14:38:50;;;;;;;5.50;1.70;;;;;;;;;;5070078;28;20200;-78
2022/11/23 14:41:35;;;;;;;3.93;1.40;;;;;;;;;;5082257;28;20211;-77
2022/11/23 14:44:03;;;;;;;3.03;1.30;;;;;;;;;;5090131;28;20287;-77
2022/11/23 14:46:29;;;;;;;4.50;1.33;;;;;;;;;;5088595;28;20192;-77
2022/11/23 14:49:06;;;;;;;2.80;1.40;;;;;;;;;;5087341;28;20180;-77
2022/11/23 14:51:33;;;;;;;3.03;1.40;;;;;;;;;;5078237;28;20270;-76
2022/11/23 14:54:01;;;;;;;3.17;1.50;;;;;;;;;;5086487;28;20180;-77
2022/11/23 14:56:38;;;;;;;4.67;1.50;;;;;;;;;;5085979;28;20193;-76
2022/11/23 14:59:08;;;;;;;2.47;1.20;;;;;;;;;;5061437;28;20220;-77